sensor_id;sensor_type;location;lat;lon;timestamp;P1;durP1;ratioP1;P2;durP2;ratioP2
41653;SDS011;30790;52.030;7.110;2023-01-28T00:00:44;2.70;;;0.90;;
41653;SDS011;30790;52.030;7.110;2023-01-28T00:03:10;1.85;;;1.23;;
41653;SDS011;30790;52.030;7.110;2023-01-28T00:05:35;4.67;;;1.50;;
41653;SDS011;30790;52.030;7.110;2023-01-28T00:08:00;1.38;;;0.98;;
41653;SDS011;30790;52.030;7.110;2023-01-28T00:10:25;1.92;;;1.10;;
41653;SDS011;30790;52.030;7.110;2023-01-28T00:12:51;2.50;;;0.90;;
41653;SDS011;30790;52.030;7.110;2023-01-28T00:15:16;2.35;;;1.13;;
41653;SDS011;30790;52.030;7.110;2023-01-28T00:17:41;3.10;;;1.38;;
41653;SDS011;30790;52.030;7.110;2023-01-28T00:20:07;4.45;;;1.48;;
41653;SDS011;30790;52.030;7.110;2023-01-28T00:22:32;1.75;;;1.00;;
41653;SDS011;30790;52.030;7.110;2023-01-28T00:24:58;3.55;;;1.17;;
41653;SDS011;30790;52.030;7.110;2023-01-28T00:27:23;2.88;;;1.00;;
41653;SDS011;30790;52.030;7.110;2023-01-28T00:29:49;2.05;;;1.00;;
41653;SDS011;30790;52.030;7.110;2023-01-28T00:32:14;4.40;;;1.00;;
41653;SDS011;30790;52.030;7.110;2023-01-28T00:34:39;1.95;;;1.08;;
41653;SDS011;30790;52.030;7.110;2023-01-28T00:37:04;3.43;;;0.87;;
41653;SDS011;30790;52.030;7.110;2023-01-28T00:39:30;1.63;;;1.10;;
41653;SDS011;30790;52.030;7.110;2023-01-28T00:41:55;1.77;;;1.00;;
41653;SDS011;30790;52.030;7.110;2023-01-28T00:44:21;3.28;;;1.02;;
41653;SDS011;30790;52.030;7.110;2023-01-28T00:46:46;1.60;;;1.40;;
41653;SDS011;30790;52.030;7.110;2023-01-28T00:49:12;1.85;;;1.02;;
41653;SDS011;30790;52.030;7.110;2023-01-28T00:51:37;2.13;;;1.00;;
41653;SDS011;30790;52.030;7.110;2023-01-28T00:54:02;2.38;;;1.02;;
41653;SDS011;30790;52.030;7.110;2023-01-28T00:56:28;1.90;;;0.70;;
41653;SDS011;30790;52.030;7.110;2023-01-28T00:58:53;1.35;;;1.10;;
41653;SDS011;30790;52.030;7.110;2023-01-28T01:01:23;2.05;;;1.20;;
41653;SDS011;30790;52.030;7.110;2023-01-28T01:03:50;1.40;;;0.88;;
41653;SDS011;30790;52.030;7.110;2023-01-28T01:06:22;1.52;;;0.95;;
41653;SDS011;30790;52.030;7.110;2023-01-28T01:08:48;1.48;;;1.08;;
41653;SDS011;30790;52.030;7.110;2023-01-28T01:11:14;2.30;;;1.15;;
41653;SDS011;30790;52.030;7.110;2023-01-28T01:13:40;1.58;;;1.00;;
41653;SDS011;30790;52.030;7.110;2023-01-28T01:18:31;3.00;;;1.30;;
41653;SDS011;30790;52.030;7.110;2023-01-28T01:20:58;3.60;;;1.33;;
41653;SDS011;30790;52.030;7.110;2023-01-28T01:23:24;1.27;;;0.95;;
41653;SDS011;30790;52.030;7.110;2023-01-28T01:25:51;1.33;;;1.02;;
41653;SDS011;30790;52.030;7.110;2023-01-28T01:28:16;1.60;;;0.93;;
41653;SDS011;30790;52.030;7.110;2023-01-28T01:30:42;1.02;;;0.70;;
41653;SDS011;30790;52.030;7.110;2023-01-28T01:33:07;2.10;;;1.13;;
41653;SDS011;30790;52.030;7.110;2023-01-28T01:35:32;4.25;;;1.08;;
41653;SDS011;30790;52.030;7.110;2023-01-28T01:37:57;2.37;;;1.00;;
41653;SDS011;30790;52.030;7.110;2023-01-28T01:40:23;0.90;;;0.75;;
41653;SDS011;30790;52.030;7.110;2023-01-28T01:42:48;1.02;;;0.93;;
41653;SDS011;30790;52.030;7.110;2023-01-28T01:45:13;2.20;;;1.20;;
41653;SDS011;30790;52.030;7.110;2023-01-28T01:47:43;0.98;;;0.93;;
41653;SDS011;30790;52.030;7.110;2023-01-28T01:52:37;1.10;;;1.00;;
41653;SDS011;30790;52.030;7.110;2023-01-28T01:55:06;2.63;;;0.95;;
41653;SDS011;30790;52.030;7.110;2023-01-28T01:57:36;1.63;;;0.90;;
41653;SDS011;30790;52.030;7.110;2023-01-28T02:00:03;2.35;;;1.00;;
41653;SDS011;30790;52.030;7.110;2023-01-28T02:02:34;3.85;;;1.23;;
41653;SDS011;30790;52.030;7.110;2023-01-28T02:05:03;0.82;;;0.82;;
41653;SDS011;30790;52.030;7.110;2023-01-28T02:07:30;1.58;;;0.95;;
41653;SDS011;30790;52.030;7.110;2023-01-28T02:09:56;1.60;;;0.93;;
41653;SDS011;30790;52.030;7.110;2023-01-28T02:12:32;1.05;;;0.90;;
41653;SDS011;30790;52.030;7.110;2023-01-28T02:15:05;1.10;;;1.00;;
41653;SDS011;30790;52.030;7.110;2023-01-28T02:17:33;2.70;;;1.13;;
41653;SDS011;30790;52.030;7.110;2023-01-28T02:20:01;2.33;;;1.20;;
41653;SDS011;30790;52.030;7.110;2023-01-28T02:28:03;1.65;;;0.80;;
41653;SDS011;30790;52.030;7.110;2023-01-28T02:30:40;2.78;;;1.05;;
41653;SDS011;30790;52.030;7.110;2023-01-28T02:33:17;1.83;;;0.85;;
41653;SDS011;30790;52.030;7.110;2023-01-28T02:35:51;2.15;;;1.27;;
41653;SDS011;30790;52.030;7.110;2023-01-28T02:38:19;1.20;;;1.00;;
41653;SDS011;30790;52.030;7.110;2023-01-28T02:40:53;0.82;;;0.82;;
41653;SDS011;30790;52.030;7.110;2023-01-28T02:43:44;1.00;;;1.00;;
41653;SDS011;30790;52.030;7.110;2023-01-28T02:46:19;1.57;;;0.80;;
41653;SDS011;30790;52.030;7.110;2023-01-28T03:00:02;1.55;;;1.10;;
41653;SDS011;30790;52.030;7.110;2023-01-28T03:02:35;1.33;;;1.05;;
41653;SDS011;30790;52.030;7.110;2023-01-28T03:05:13;1.67;;;1.00;;
41653;SDS011;30790;52.030;7.110;2023-01-28T03:07:46;2.78;;;1.60;;
41653;SDS011;30790;52.030;7.110;2023-01-28T03:10:13;1.23;;;1.00;;
41653;SDS011;30790;52.030;7.110;2023-01-28T03:12:42;1.15;;;1.05;;
41653;SDS011;30790;52.030;7.110;2023-01-28T03:15:42;1.08;;;1.00;;
41653;SDS011;30790;52.030;7.110;2023-01-28T03:18:31;2.70;;;1.65;;
41653;SDS011;30790;52.030;7.110;2023-01-28T03:21:30;1.10;;;0.80;;
41653;SDS011;30790;52.030;7.110;2023-01-28T03:24:25;1.40;;;1.15;;
41653;SDS011;30790;52.030;7.110;2023-01-28T03:27:16;1.02;;;0.95;;
41653;SDS011;30790;52.030;7.110;2023-01-28T03:30:08;1.55;;;1.33;;
41653;SDS011;30790;52.030;7.110;2023-01-28T03:32:57;0.95;;;0.80;;
41653;SDS011;30790;52.030;7.110;2023-01-28T03:35:42;4.57;;;1.10;;
41653;SDS011;30790;52.030;7.110;2023-01-28T03:38:27;1.90;;;1.25;;
41653;SDS011;30790;52.030;7.110;2023-01-28T03:41:06;1.75;;;0.85;;
41653;SDS011;30790;52.030;7.110;2023-01-28T03:43:33;0.90;;;0.90;;
41653;SDS011;30790;52.030;7.110;2023-01-28T03:45:59;0.73;;;0.70;;
41653;SDS011;30790;52.030;7.110;2023-01-28T03:48:25;1.60;;;1.02;;
41653;SDS011;30790;52.030;7.110;2023-01-28T03:50:52;1.70;;;1.10;;
41653;SDS011;30790;52.030;7.110;2023-01-28T03:53:19;1.60;;;0.90;;
41653;SDS011;30790;52.030;7.110;2023-01-28T03:55:46;1.85;;;1.00;;
41653;SDS011;30790;52.030;7.110;2023-01-28T03:58:12;1.02;;;0.90;;
41653;SDS011;30790;52.030;7.110;2023-01-28T04:00:38;1.05;;;0.90;;
41653;SDS011;30790;52.030;7.110;2023-01-28T04:03:16;1.00;;;0.85;;
41653;SDS011;30790;52.030;7.110;2023-01-28T04:06:00;1.38;;;0.95;;
41653;SDS011;30790;52.030;7.110;2023-01-28T04:08:28;1.30;;;1.20;;
41653;SDS011;30790;52.030;7.110;2023-01-28T04:10:53;1.20;;;1.10;;
41653;SDS011;30790;52.030;7.110;2023-01-28T04:13:18;1.10;;;1.00;;
41653;SDS011;30790;52.030;7.110;2023-01-28T04:15:44;2.08;;;1.52;;
41653;SDS011;30790;52.030;7.110;2023-01-28T04:18:10;2.00;;;0.90;;
41653;SDS011;30790;52.030;7.110;2023-01-28T04:20:36;2.28;;;1.10;;
41653;SDS011;30790;52.030;7.110;2023-01-28T04:23:02;1.35;;;1.17;;
41653;SDS011;30790;52.030;7.110;2023-01-28T04:25:28;1.60;;;1.02;;
41653;SDS011;30790;52.030;7.110;2023-01-28T04:27:54;1.48;;;1.20;;
41653;SDS011;30790;52.030;7.110;2023-01-28T04:30:19;1.65;;;1.08;;
41653;SDS011;30790;52.030;7.110;2023-01-28T04:32:45;2.22;;;0.88;;
41653;SDS011;30790;52.030;7.110;2023-01-28T04:35:10;2.05;;;1.08;;
41653;SDS011;30790;52.030;7.110;2023-01-28T04:37:36;2.58;;;0.90;;
41653;SDS011;30790;52.030;7.110;2023-01-28T04:40:01;3.60;;;1.27;;
41653;SDS011;30790;52.030;7.110;2023-01-28T04:42:27;1.30;;;1.08;;
41653;SDS011;30790;52.030;7.110;2023-01-28T04:44:52;0.90;;;0.90;;
41653;SDS011;30790;52.030;7.110;2023-01-28T04:47:17;1.10;;;0.93;;
41653;SDS011;30790;52.030;7.110;2023-01-28T04:49:43;2.05;;;0.98;;
41653;SDS011;30790;52.030;7.110;2023-01-28T04:52:09;0.80;;;0.80;;
41653;SDS011;30790;52.030;7.110;2023-01-28T04:54:34;0.95;;;0.82;;
41653;SDS011;30790;52.030;7.110;2023-01-28T04:56:59;0.82;;;0.82;;
41653;SDS011;30790;52.030;7.110;2023-01-28T04:59:25;1.27;;;1.15;;
41653;SDS011;30790;52.030;7.110;2023-01-28T05:01:50;1.25;;;0.95;;
41653;SDS011;30790;52.030;7.110;2023-01-28T05:04:15;1.15;;;0.80;;
41653;SDS011;30790;52.030;7.110;2023-01-28T05:06:41;1.73;;;0.85;;
41653;SDS011;30790;52.030;7.110;2023-01-28T05:09:06;0.80;;;0.80;;
41653;SDS011;30790;52.030;7.110;2023-01-28T05:11:32;1.45;;;1.00;;
41653;SDS011;30790;52.030;7.110;2023-01-28T05:13:57;1.52;;;1.00;;
41653;SDS011;30790;52.030;7.110;2023-01-28T05:16:22;1.02;;;0.88;;
41653;SDS011;30790;52.030;7.110;2023-01-28T05:18:47;1.13;;;0.95;;
41653;SDS011;30790;52.030;7.110;2023-01-28T05:21:15;1.02;;;0.93;;
41653;SDS011;30790;52.030;7.110;2023-01-28T05:23:41;0.93;;;0.90;;
41653;SDS011;30790;52.030;7.110;2023-01-28T05:26:06;1.40;;;0.75;;
41653;SDS011;30790;52.030;7.110;2023-01-28T05:28:31;0.80;;;0.80;;
41653;SDS011;30790;52.030;7.110;2023-01-28T05:31:01;1.15;;;0.90;;
41653;SDS011;30790;52.030;7.110;2023-01-28T05:33:30;1.08;;;0.90;;
41653;SDS011;30790;52.030;7.110;2023-01-28T05:35:55;0.80;;;0.80;;
41653;SDS011;30790;52.030;7.110;2023-01-28T05:38:20;0.95;;;0.80;;
41653;SDS011;30790;52.030;7.110;2023-01-28T05:40:46;1.20;;;0.90;;
41653;SDS011;30790;52.030;7.110;2023-01-28T05:43:11;0.95;;;0.90;;
41653;SDS011;30790;52.030;7.110;2023-01-28T05:45:37;0.95;;;0.90;;
41653;SDS011;30790;52.030;7.110;2023-01-28T05:48:02;1.05;;;0.98;;
41653;SDS011;30790;52.030;7.110;2023-01-28T05:50:28;0.60;;;0.60;;
41653;SDS011;30790;52.030;7.110;2023-01-28T05:52:53;0.80;;;0.70;;
41653;SDS011;30790;52.030;7.110;2023-01-28T05:55:18;1.40;;;1.10;;
41653;SDS011;30790;52.030;7.110;2023-01-28T05:57:43;1.00;;;0.95;;
41653;SDS011;30790;52.030;7.110;2023-01-28T06:00:09;1.35;;;0.90;;
41653;SDS011;30790;52.030;7.110;2023-01-28T06:02:35;0.98;;;0.88;;
41653;SDS011;30790;52.030;7.110;2023-01-28T06:05:00;0.93;;;0.70;;
41653;SDS011;30790;52.030;7.110;2023-01-28T06:07:25;1.10;;;1.00;;
41653;SDS011;30790;52.030;7.110;2023-01-28T06:09:50;1.95;;;0.90;;
41653;SDS011;30790;52.030;7.110;2023-01-28T06:12:16;0.90;;;0.80;;
41653;SDS011;30790;52.030;7.110;2023-01-28T06:14:41;0.82;;;0.80;;
41653;SDS011;30790;52.030;7.110;2023-01-28T06:17:06;0.85;;;0.80;;
41653;SDS011;30790;52.030;7.110;2023-01-28T06:19:32;0.63;;;0.63;;
41653;SDS011;30790;52.030;7.110;2023-01-28T06:21:58;0.95;;;0.95;;
41653;SDS011;30790;52.030;7.110;2023-01-28T06:24:23;0.73;;;0.60;;
41653;SDS011;30790;52.030;7.110;2023-01-28T06:26:48;1.00;;;0.90;;
41653;SDS011;30790;52.030;7.110;2023-01-28T06:29:13;1.75;;;0.80;;
41653;SDS011;30790;52.030;7.110;2023-01-28T06:31:39;0.80;;;0.80;;
41653;SDS011;30790;52.030;7.110;2023-01-28T06:34:04;1.00;;;0.93;;
41653;SDS011;30790;52.030;7.110;2023-01-28T06:36:30;0.95;;;0.95;;
41653;SDS011;30790;52.030;7.110;2023-01-28T06:38:55;1.10;;;1.00;;
41653;SDS011;30790;52.030;7.110;2023-01-28T06:41:21;0.98;;;0.90;;
41653;SDS011;30790;52.030;7.110;2023-01-28T06:43:47;1.35;;;0.90;;
41653;SDS011;30790;52.030;7.110;2023-01-28T06:46:38;0.95;;;0.88;;
41653;SDS011;30790;52.030;7.110;2023-01-28T06:49:03;1.58;;;0.93;;
41653;SDS011;30790;52.030;7.110;2023-01-28T06:51:29;1.33;;;0.80;;
41653;SDS011;30790;52.030;7.110;2023-01-28T06:53:54;0.93;;;0.77;;
41653;SDS011;30790;52.030;7.110;2023-01-28T06:56:19;0.82;;;0.80;;
41653;SDS011;30790;52.030;7.110;2023-01-28T06:58:44;0.80;;;0.80;;
41653;SDS011;30790;52.030;7.110;2023-01-28T07:01:10;0.70;;;0.70;;
41653;SDS011;30790;52.030;7.110;2023-01-28T07:03:35;0.73;;;0.73;;
41653;SDS011;30790;52.030;7.110;2023-01-28T07:06:01;0.60;;;0.60;;
41653;SDS011;30790;52.030;7.110;2023-01-28T07:08:26;1.17;;;0.90;;
41653;SDS011;30790;52.030;7.110;2023-01-28T07:10:51;0.93;;;0.70;;
41653;SDS011;30790;52.030;7.110;2023-01-28T07:13:16;0.93;;;0.93;;
41653;SDS011;30790;52.030;7.110;2023-01-28T07:15:42;0.80;;;0.80;;
41653;SDS011;30790;52.030;7.110;2023-01-28T07:18:08;0.60;;;0.60;;
41653;SDS011;30790;52.030;7.110;2023-01-28T07:23:45;0.93;;;0.93;;
41653;SDS011;30790;52.030;7.110;2023-01-28T07:26:10;1.40;;;0.80;;
41653;SDS011;30790;52.030;7.110;2023-01-28T07:28:35;1.50;;;0.70;;
41653;SDS011;30790;52.030;7.110;2023-01-28T07:31:01;1.60;;;0.82;;
41653;SDS011;30790;52.030;7.110;2023-01-28T07:33:26;2.17;;;0.70;;
41653;SDS011;30790;52.030;7.110;2023-01-28T07:35:52;3.25;;;0.73;;
41653;SDS011;30790;52.030;7.110;2023-01-28T07:38:17;0.80;;;0.80;;
41653;SDS011;30790;52.030;7.110;2023-01-28T07:40:42;1.17;;;0.88;;
41653;SDS011;30790;52.030;7.110;2023-01-28T07:43:09;1.50;;;0.88;;
41653;SDS011;30790;52.030;7.110;2023-01-28T07:45:34;0.93;;;0.88;;
41653;SDS011;30790;52.030;7.110;2023-01-28T07:48:01;0.80;;;0.70;;
41653;SDS011;30790;52.030;7.110;2023-01-28T07:50:30;1.27;;;0.73;;
41653;SDS011;30790;52.030;7.110;2023-01-28T07:52:57;1.35;;;0.80;;
41653;SDS011;30790;52.030;7.110;2023-01-28T07:55:23;1.08;;;0.98;;
41653;SDS011;30790;52.030;7.110;2023-01-28T07:57:49;1.35;;;0.70;;
41653;SDS011;30790;52.030;7.110;2023-01-28T08:00:19;3.20;;;1.08;;
41653;SDS011;30790;52.030;7.110;2023-01-28T08:02:46;7.20;;;1.38;;
41653;SDS011;30790;52.030;7.110;2023-01-28T08:05:16;2.13;;;1.00;;
41653;SDS011;30790;52.030;7.110;2023-01-28T08:07:42;8.57;;;1.02;;
41653;SDS011;30790;52.030;7.110;2023-01-28T08:10:09;2.95;;;1.13;;
41653;SDS011;30790;52.030;7.110;2023-01-28T08:12:35;2.35;;;0.88;;
41653;SDS011;30790;52.030;7.110;2023-01-28T08:15:00;2.25;;;1.00;;
41653;SDS011;30790;52.030;7.110;2023-01-28T08:17:26;4.38;;;1.00;;
41653;SDS011;30790;52.030;7.110;2023-01-28T08:19:51;3.40;;;0.80;;
41653;SDS011;30790;52.030;7.110;2023-01-28T08:22:17;6.60;;;1.30;;
41653;SDS011;30790;52.030;7.110;2023-01-28T08:24:43;4.72;;;0.90;;
41653;SDS011;30790;52.030;7.110;2023-01-28T08:27:08;5.82;;;0.85;;
41653;SDS011;30790;52.030;7.110;2023-01-28T08:29:33;1.07;;;0.73;;
41653;SDS011;30790;52.030;7.110;2023-01-28T08:31:58;2.40;;;0.63;;
41653;SDS011;30790;52.030;7.110;2023-01-28T08:34:24;3.15;;;0.85;;
41653;SDS011;30790;52.030;7.110;2023-01-28T08:36:49;4.70;;;1.00;;
41653;SDS011;30790;52.030;7.110;2023-01-28T08:39:14;3.95;;;0.70;;
41653;SDS011;30790;52.030;7.110;2023-01-28T08:41:40;5.65;;;0.98;;
41653;SDS011;30790;52.030;7.110;2023-01-28T08:44:05;2.33;;;0.80;;
41653;SDS011;30790;52.030;7.110;2023-01-28T08:46:30;1.10;;;0.95;;
41653;SDS011;30790;52.030;7.110;2023-01-28T08:48:55;1.48;;;0.80;;
41653;SDS011;30790;52.030;7.110;2023-01-28T08:51:21;2.75;;;0.80;;
41653;SDS011;30790;52.030;7.110;2023-01-28T08:53:46;2.75;;;0.95;;
41653;SDS011;30790;52.030;7.110;2023-01-28T08:56:11;4.07;;;0.70;;
41653;SDS011;30790;52.030;7.110;2023-01-28T08:58:38;2.92;;;0.85;;
41653;SDS011;30790;52.030;7.110;2023-01-28T09:01:04;4.95;;;0.93;;
41653;SDS011;30790;52.030;7.110;2023-01-28T09:03:30;6.95;;;1.23;;
41653;SDS011;30790;52.030;7.110;2023-01-28T09:06:02;1.38;;;0.80;;
41653;SDS011;30790;52.030;7.110;2023-01-28T09:08:28;3.08;;;0.70;;
41653;SDS011;30790;52.030;7.110;2023-01-28T09:10:57;3.55;;;0.70;;
41653;SDS011;30790;52.030;7.110;2023-01-28T09:13:23;2.15;;;0.77;;
41653;SDS011;30790;52.030;7.110;2023-01-28T09:15:49;2.08;;;0.80;;
41653;SDS011;30790;52.030;7.110;2023-01-28T09:18:15;4.40;;;0.82;;
41653;SDS011;30790;52.030;7.110;2023-01-28T09:20:41;7.00;;;1.05;;
41653;SDS011;30790;52.030;7.110;2023-01-28T09:23:06;1.70;;;0.68;;
41653;SDS011;30790;52.030;7.110;2023-01-28T09:25:32;1.05;;;0.75;;
41653;SDS011;30790;52.030;7.110;2023-01-28T09:28:00;2.13;;;0.90;;
41653;SDS011;30790;52.030;7.110;2023-01-28T09:30:25;1.67;;;0.90;;
41653;SDS011;30790;52.030;7.110;2023-01-28T09:32:51;2.08;;;0.70;;
41653;SDS011;30790;52.030;7.110;2023-01-28T09:35:17;0.60;;;0.60;;
41653;SDS011;30790;52.030;7.110;2023-01-28T09:37:43;0.93;;;0.75;;
41653;SDS011;30790;52.030;7.110;2023-01-28T09:40:11;1.67;;;0.73;;
41653;SDS011;30790;52.030;7.110;2023-01-28T09:42:54;1.85;;;0.82;;
41653;SDS011;30790;52.030;7.110;2023-01-28T09:45:32;0.80;;;0.75;;
41653;SDS011;30790;52.030;7.110;2023-01-28T09:48:04;1.45;;;0.85;;
41653;SDS011;30790;52.030;7.110;2023-01-28T09:50:34;1.73;;;0.82;;
41653;SDS011;30790;52.030;7.110;2023-01-28T09:53:14;3.25;;;2.72;;
41653;SDS011;30790;52.030;7.110;2023-01-28T09:56:23;5.03;;;3.63;;
41653;SDS011;30790;52.030;7.110;2023-01-28T09:58:32;10.70;;;7.68;;
41653;SDS011;30790;52.030;7.110;2023-01-28T10:06:49;8.90;;;6.95;;
41653;SDS011;30790;52.030;7.110;2023-01-28T10:12:15;7.32;;;4.85;;
41653;SDS011;30790;52.030;7.110;2023-01-28T10:15:07;7.10;;;4.13;;
41653;SDS011;30790;52.030;7.110;2023-01-28T10:17:44;6.55;;;4.15;;
41653;SDS011;30790;52.030;7.110;2023-01-28T10:20:21;5.40;;;3.92;;
41653;SDS011;30790;52.030;7.110;2023-01-28T10:25:38;6.32;;;3.65;;
41653;SDS011;30790;52.030;7.110;2023-01-28T10:28:18;7.05;;;3.83;;
41653;SDS011;30790;52.030;7.110;2023-01-28T10:30:48;9.00;;;3.53;;
41653;SDS011;30790;52.030;7.110;2023-01-28T10:35:51;5.78;;;2.80;;
41653;SDS011;30790;52.030;7.110;2023-01-28T10:38:19;3.55;;;2.70;;
41653;SDS011;30790;52.030;7.110;2023-01-28T10:40:46;2.90;;;2.35;;
41653;SDS011;30790;52.030;7.110;2023-01-28T10:43:12;10.30;;;3.53;;
41653;SDS011;30790;52.030;7.110;2023-01-28T10:45:42;2.42;;;2.05;;
41653;SDS011;30790;52.030;7.110;2023-01-28T10:48:34;5.50;;;2.58;;
41653;SDS011;30790;52.030;7.110;2023-01-28T10:51:03;7.45;;;2.40;;
41653;SDS011;30790;52.030;7.110;2023-01-28T10:53:40;4.50;;;2.60;;
41653;SDS011;30790;52.030;7.110;2023-01-28T10:56:13;5.55;;;2.55;;
41653;SDS011;30790;52.030;7.110;2023-01-28T11:01:37;4.55;;;2.17;;
41653;SDS011;30790;52.030;7.110;2023-01-28T11:04:05;7.30;;;2.38;;
41653;SDS011;30790;52.030;7.110;2023-01-28T11:06:38;3.40;;;2.50;;
41653;SDS011;30790;52.030;7.110;2023-01-28T11:09:18;5.20;;;2.27;;
41653;SDS011;30790;52.030;7.110;2023-01-28T11:11:45;3.22;;;2.25;;
41653;SDS011;30790;52.030;7.110;2023-01-28T11:14:18;3.33;;;2.28;;
41653;SDS011;30790;52.030;7.110;2023-01-28T11:16:48;4.03;;;2.10;;
41653;SDS011;30790;52.030;7.110;2023-01-28T11:19:14;4.05;;;2.10;;
41653;SDS011;30790;52.030;7.110;2023-01-28T11:21:47;3.70;;;1.80;;
41653;SDS011;30790;52.030;7.110;2023-01-28T11:24:18;10.98;;;2.72;;
41653;SDS011;30790;52.030;7.110;2023-01-28T11:26:48;5.32;;;2.00;;
41653;SDS011;30790;52.030;7.110;2023-01-28T11:29:23;7.43;;;2.50;;
41653;SDS011;30790;52.030;7.110;2023-01-28T11:31:55;7.40;;;2.55;;
41653;SDS011;30790;52.030;7.110;2023-01-28T11:34:24;4.70;;;2.60;;
41653;SDS011;30790;52.030;7.110;2023-01-28T11:37:00;6.40;;;2.38;;
41653;SDS011;30790;52.030;7.110;2023-01-28T11:39:34;6.95;;;2.70;;
41653;SDS011;30790;52.030;7.110;2023-01-28T11:42:18;8.32;;;2.70;;
41653;SDS011;30790;52.030;7.110;2023-01-28T11:55:58;5.25;;;2.30;;
41653;SDS011;30790;52.030;7.110;2023-01-28T11:58:20;5.88;;;2.10;;
41653;SDS011;30790;52.030;7.110;2023-01-28T12:03:45;7.63;;;2.58;;
41653;SDS011;30790;52.030;7.110;2023-01-28T12:09:22;6.57;;;2.30;;
41653;SDS011;30790;52.030;7.110;2023-01-28T12:12:17;3.45;;;2.22;;
41653;SDS011;30790;52.030;7.110;2023-01-28T12:15:15;7.10;;;2.55;;
41653;SDS011;30790;52.030;7.110;2023-01-28T12:17:51;3.40;;;2.03;;
41653;SDS011;30790;52.030;7.110;2023-01-28T12:23:33;5.40;;;2.60;;
41653;SDS011;30790;52.030;7.110;2023-01-28T12:26:05;6.40;;;2.47;;
41653;SDS011;30790;52.030;7.110;2023-01-28T12:42:40;4.57;;;1.85;;
41653;SDS011;30790;52.030;7.110;2023-01-28T12:47:42;3.97;;;2.00;;
41653;SDS011;30790;52.030;7.110;2023-01-28T12:50:16;5.32;;;2.20;;
41653;SDS011;30790;52.030;7.110;2023-01-28T12:53:04;7.53;;;2.00;;
41653;SDS011;30790;52.030;7.110;2023-01-28T12:55:47;6.22;;;2.53;;
41653;SDS011;30790;52.030;7.110;2023-01-28T13:01:34;13.32;;;1.90;;
41653;SDS011;30790;52.030;7.110;2023-01-28T13:06:57;3.80;;;2.28;;
41653;SDS011;30790;52.030;7.110;2023-01-28T13:09:27;5.20;;;1.95;;
41653;SDS011;30790;52.030;7.110;2023-01-28T13:11:55;3.63;;;1.98;;
41653;SDS011;30790;52.030;7.110;2023-01-28T13:14:24;5.60;;;1.92;;
41653;SDS011;30790;52.030;7.110;2023-01-28T13:16:55;3.90;;;1.73;;
41653;SDS011;30790;52.030;7.110;2023-01-28T13:19:37;7.95;;;1.88;;
41653;SDS011;30790;52.030;7.110;2023-01-28T13:22:12;11.05;;;2.67;;
41653;SDS011;30790;52.030;7.110;2023-01-28T13:24:51;11.52;;;2.40;;
41653;SDS011;30790;52.030;7.110;2023-01-28T13:27:20;5.68;;;2.10;;
41653;SDS011;30790;52.030;7.110;2023-01-28T13:30:05;6.60;;;2.17;;
41653;SDS011;30790;52.030;7.110;2023-01-28T13:32:53;3.20;;;2.00;;
41653;SDS011;30790;52.030;7.110;2023-01-28T13:35:38;6.28;;;1.83;;
41653;SDS011;30790;52.030;7.110;2023-01-28T13:38:25;5.10;;;1.83;;
41653;SDS011;30790;52.030;7.110;2023-01-28T13:43:39;5.20;;;2.03;;
41653;SDS011;30790;52.030;7.110;2023-01-28T13:46:10;7.95;;;1.80;;
41653;SDS011;30790;52.030;7.110;2023-01-28T13:48:51;4.45;;;1.85;;
41653;SDS011;30790;52.030;7.110;2023-01-28T13:51:32;3.55;;;1.45;;
41653;SDS011;30790;52.030;7.110;2023-01-28T13:54:01;7.78;;;1.50;;
41653;SDS011;30790;52.030;7.110;2023-01-28T13:56:34;5.38;;;1.90;;
41653;SDS011;30790;52.030;7.110;2023-01-28T14:07:37;3.10;;;1.60;;
41653;SDS011;30790;52.030;7.110;2023-01-28T14:18:38;5.80;;;1.90;;
41653;SDS011;30790;52.030;7.110;2023-01-28T14:21:09;3.17;;;1.75;;
41653;SDS011;30790;52.030;7.110;2023-01-28T14:23:44;3.53;;;1.95;;
41653;SDS011;30790;52.030;7.110;2023-01-28T14:26:17;4.20;;;1.67;;
41653;SDS011;30790;52.030;7.110;2023-01-28T14:31:49;4.53;;;1.65;;
41653;SDS011;30790;52.030;7.110;2023-01-28T14:36:48;6.05;;;1.75;;
41653;SDS011;30790;52.030;7.110;2023-01-28T14:39:15;5.43;;;1.95;;
41653;SDS011;30790;52.030;7.110;2023-01-28T14:41:46;4.15;;;1.88;;
41653;SDS011;30790;52.030;7.110;2023-01-28T14:44:21;3.75;;;1.88;;
41653;SDS011;30790;52.030;7.110;2023-01-28T14:47:09;3.85;;;1.92;;
41653;SDS011;30790;52.030;7.110;2023-01-28T14:55:02;6.72;;;2.08;;
41653;SDS011;30790;52.030;7.110;2023-01-28T14:57:55;5.13;;;1.80;;
41653;SDS011;30790;52.030;7.110;2023-01-28T15:00:27;3.55;;;1.60;;
41653;SDS011;30790;52.030;7.110;2023-01-28T15:02:54;3.95;;;1.83;;
41653;SDS011;30790;52.030;7.110;2023-01-28T15:05:21;3.80;;;1.40;;
41653;SDS011;30790;52.030;7.110;2023-01-28T15:07:49;3.58;;;1.40;;
41653;SDS011;30790;52.030;7.110;2023-01-28T15:10:16;3.22;;;1.70;;
41653;SDS011;30790;52.030;7.110;2023-01-28T15:12:57;2.33;;;1.73;;
41653;SDS011;30790;52.030;7.110;2023-01-28T15:15:30;3.80;;;1.20;;
41653;SDS011;30790;52.030;7.110;2023-01-28T15:18:01;2.78;;;1.67;;
41653;SDS011;30790;52.030;7.110;2023-01-28T15:20:29;4.95;;;1.77;;
41653;SDS011;30790;52.030;7.110;2023-01-28T15:22:55;3.95;;;1.98;;
41653;SDS011;30790;52.030;7.110;2023-01-28T15:25:22;5.25;;;1.67;;
41653;SDS011;30790;52.030;7.110;2023-01-28T15:27:52;4.28;;;1.63;;
41653;SDS011;30790;52.030;7.110;2023-01-28T15:30:23;3.95;;;1.60;;
41653;SDS011;30790;52.030;7.110;2023-01-28T15:33:04;3.35;;;1.55;;
41653;SDS011;30790;52.030;7.110;2023-01-28T15:35:35;3.80;;;1.98;;
41653;SDS011;30790;52.030;7.110;2023-01-28T15:38:00;4.25;;;1.80;;
41653;SDS011;30790;52.030;7.110;2023-01-28T15:40:26;4.53;;;1.70;;
41653;SDS011;30790;52.030;7.110;2023-01-28T15:42:53;3.05;;;1.65;;
41653;SDS011;30790;52.030;7.110;2023-01-28T15:45:21;4.93;;;1.45;;
41653;SDS011;30790;52.030;7.110;2023-01-28T15:47:50;2.72;;;1.58;;
41653;SDS011;30790;52.030;7.110;2023-01-28T15:50:18;5.20;;;1.70;;
41653;SDS011;30790;52.030;7.110;2023-01-28T15:52:45;2.72;;;1.70;;
41653;SDS011;30790;52.030;7.110;2023-01-28T15:58:27;3.88;;;1.48;;
41653;SDS011;30790;52.030;7.110;2023-01-28T16:01:27;3.10;;;1.45;;
41653;SDS011;30790;52.030;7.110;2023-01-28T16:03:58;2.60;;;1.83;;
41653;SDS011;30790;52.030;7.110;2023-01-28T16:06:30;6.30;;;2.00;;
41653;SDS011;30790;52.030;7.110;2023-01-28T16:09:00;4.15;;;1.98;;
41653;SDS011;30790;52.030;7.110;2023-01-28T16:14:02;7.50;;;2.20;;
41653;SDS011;30790;52.030;7.110;2023-01-28T16:16:32;4.55;;;1.85;;
41653;SDS011;30790;52.030;7.110;2023-01-28T16:19:00;2.55;;;1.35;;
41653;SDS011;30790;52.030;7.110;2023-01-28T16:21:36;5.05;;;1.58;;
41653;SDS011;30790;52.030;7.110;2023-01-28T16:24:29;4.75;;;1.80;;
41653;SDS011;30790;52.030;7.110;2023-01-28T16:27:00;3.40;;;1.70;;
41653;SDS011;30790;52.030;7.110;2023-01-28T16:29:31;3.33;;;1.77;;
41653;SDS011;30790;52.030;7.110;2023-01-28T16:31:57;3.75;;;2.03;;
41653;SDS011;30790;52.030;7.110;2023-01-28T16:34:27;6.43;;;1.58;;
41653;SDS011;30790;52.030;7.110;2023-01-28T16:36:57;5.65;;;1.80;;
41653;SDS011;30790;52.030;7.110;2023-01-28T16:39:23;3.67;;;1.95;;
41653;SDS011;30790;52.030;7.110;2023-01-28T16:41:48;5.95;;;1.75;;
41653;SDS011;30790;52.030;7.110;2023-01-28T16:44:15;7.47;;;1.83;;
41653;SDS011;30790;52.030;7.110;2023-01-28T16:46:41;2.83;;;1.60;;
41653;SDS011;30790;52.030;7.110;2023-01-28T16:49:07;6.80;;;2.25;;
41653;SDS011;30790;52.030;7.110;2023-01-28T16:51:33;4.38;;;1.80;;
41653;SDS011;30790;52.030;7.110;2023-01-28T16:54:04;6.30;;;1.90;;
41653;SDS011;30790;52.030;7.110;2023-01-28T16:56:30;4.97;;;2.05;;
41653;SDS011;30790;52.030;7.110;2023-01-28T16:58:55;3.95;;;1.65;;
41653;SDS011;30790;52.030;7.110;2023-01-28T17:01:21;7.40;;;1.77;;
41653;SDS011;30790;52.030;7.110;2023-01-28T17:03:46;9.02;;;1.85;;